Maple Hill, Minnesota
Current Conditions -  °F | °C
As of 2:34 PM on Thursday 27 Nov 2014 (Local Time) from KCKC Reporting Station
Clear Clear  
Wind Chill: -8°   Ceiling: Unl
Heat Index:   Visibility: 10mi
Dew Point: -8°   Wind: 6mph
Humidity: 61%   Direction: 290°WNW
Pressure: 30.26"   Gusts: NA
Location:  47.8874°N, 90.328°W
Report Text: KCKC 272034Z AUTO 29005KT 10SM CLR M16/M22 A3026 RMK AO2
Loading
Personal Weather Stations






























Interactive Weather Map New forecast layout! Learn more

10-Day Weather Forecast

Advertisements
Track Severe Weather on mobile